Time;durP1;ratioP1;P1;durP2;ratioP2;P2;SDS_P1;SDS_P2;PMS_P1;PMS_P2;Temp;Humidity;BMP_temperature;BMP_pressure;BME280_temperature;BME280_humidity;BME280_pressure;Samples;Min_cycle;Max_cycle;Signal;HPM_P1;HPM_P2
2021/01/12 00:01:46;;;;;;;23.08;9.93;;;;;;;5.45;100.00;101126.94;5205007;28;20026;-67
2021/01/12 00:04:17;;;;;;;25.75;9.98;;;;;;;5.41;100.00;101120.16;5204523;28;20029;-67
2021/01/12 00:06:49;;;;;;;28.92;10.07;;;;;;;5.49;100.00;101121.38;5203862;28;20021;-67
2021/01/12 00:09:20;;;;;;;24.23;10.25;;;;;;;5.43;100.00;101110.25;5204729;28;20060;-66
2021/01/12 00:11:53;;;;;;;20.35;9.98;;;;;;;5.43;100.00;101109.41;5204639;28;20260;-67
2021/01/12 00:14:31;;;;;;;28.02;9.82;;;;;;;5.44;100.00;101103.97;5204005;28;20060;-67
2021/01/12 00:17:04;;;;;;;27.25;8.90;;;;;;;5.44;100.00;101103.97;5204420;28;20157;-66
2021/01/12 00:19:36;;;;;;;22.52;9.60;;;;;;;5.43;100.00;101094.28;5204416;28;20083;-67
2021/01/12 00:22:14;;;;;;;21.65;8.77;;;;;;;5.48;100.00;101079.78;5204456;28;20021;-67
2021/01/12 00:24:46;;;;;;;14.57;7.38;;;;;;;5.53;100.00;101085.56;5203301;28;20508;-68
2021/01/12 00:27:19;;;;;;;23.23;7.75;;;;;;;5.46;100.00;101078.06;5202643;28;20417;-67
2021/01/12 00:29:50;;;;;;;18.27;6.88;;;;;;;5.53;100.00;101059.78;5204020;28;20029;-67
2021/01/12 00:32:24;;;;;;;19.02;7.65;;;;;;;5.47;100.00;101057.59;5204091;28;20199;-67
2021/01/12 00:34:55;;;;;;;19.13;7.38;;;;;;;5.50;100.00;101053.84;5204099;28;20029;-67
2021/01/12 00:37:27;;;;;;;18.13;7.65;;;;;;;5.42;100.00;101047.38;5203189;28;20064;-67
2021/01/12 00:39:57;;;;;;;16.42;7.38;;;;;;;5.52;100.00;101042.09;5203981;28;20010;-67
2021/01/12 00:42:27;;;;;;;19.15;7.72;;;;;;;5.56;100.00;101040.88;5203768;28;20025;-67
2021/01/12 00:44:58;;;;;;;13.93;6.75;;;;;;;5.51;100.00;101028.94;5203726;28;20026;-67
2021/01/12 00:47:28;;;;;;;18.55;7.72;;;;;;;5.53;100.00;101025.19;5203439;28;20364;-67
2021/01/12 00:49:59;;;;;;;15.35;6.60;;;;;;;5.51;100.00;101018.28;5197716;28;20022;-67
2021/01/12 00:52:29;;;;;;;14.23;6.40;;;;;;;5.49;100.00;101022.91;5202664;28;20026;-67
2021/01/12 00:55:00;;;;;;;12.93;6.20;;;;;;;5.53;100.00;101019.03;5202085;28;20018;-67
2021/01/12 00:57:30;;;;;;;25.15;6.95;;;;;;;5.55;100.00;101014.41;5204194;28;20029;-67
2021/01/12 01:00:02;;;;;;;12.77;6.30;;;;;;;5.62;100.00;101011.09;5208033;28;20149;-67
2021/01/12 01:02:32;;;;;;;16.50;6.43;;;;;;;5.64;100.00;101002.97;5203378;28;20033;-67
2021/01/12 01:05:04;;;;;;;16.15;6.32;;;;;;;5.63;100.00;101001.31;5201046;28;20052;-67
2021/01/12 01:07:34;;;;;;;14.15;6.10;;;;;;;5.60;100.00;101009.53;5193682;28;20017;-67
2021/01/12 01:10:05;;;;;;;15.93;5.72;;;;;;;5.61;100.00;101004.06;5203113;28;20026;-67
2021/01/12 01:12:36;;;;;;;13.70;5.05;;;;;;;5.68;100.00;100993.75;5203576;28;20029;-67
2021/01/12 01:15:07;;;;;;;15.48;6.25;;;;;;;5.62;100.00;100992.47;5202724;28;20037;-67
2021/01/12 01:17:37;;;;;;;13.43;6.90;;;;;;;5.69;100.00;100992.78;5202747;28;20032;-67
2021/01/12 01:20:08;;;;;;;13.18;6.00;;;;;;;5.65;100.00;100989.53;5203109;28;20029;-67
2021/01/12 01:22:38;;;;;;;11.00;5.82;;;;;;;5.67;100.00;100984.06;5203155;28;20057;-67
2021/01/12 01:25:10;;;;;;;17.88;5.50;;;;;;;5.72;100.00;100984.50;5202800;28;20025;-67
2021/01/12 01:27:40;;;;;;;10.82;5.53;;;;;;;5.70;100.00;100970.50;5202280;28;20037;-67
2021/01/12 01:30:11;;;;;;;10.63;4.93;;;;;;;5.75;100.00;100978.94;5202970;28;20075;-67
2021/01/12 01:32:44;;;;;;;11.57;5.18;;;;;;;5.74;100.00;100977.25;5203069;28;20028;-67
2021/01/12 01:35:15;;;;;;;10.73;4.93;;;;;;;5.74;100.00;100969.28;5203135;28;20554;-67
2021/01/12 01:37:45;;;;;;;9.90;5.30;;;;;;;5.75;100.00;100960.31;5201797;28;20096;-67
2021/01/12 01:40:20;;;;;;;11.00;5.25;;;;;;;5.71;100.00;100961.53;5203107;28;20386;-67
2021/01/12 01:42:51;;;;;;;9.15;5.30;;;;;;;5.73;100.00;100964.94;5203134;28;20025;-67
2021/01/12 01:45:24;;;;;;;8.68;5.03;;;;;;;5.75;100.00;100965.63;5202651;28;20035;-67
2021/01/12 01:47:54;;;;;;;9.98;5.07;;;;;;;5.78;100.00;100954.72;5202275;28;20537;-67
2021/01/12 01:50:25;;;;;;;10.05;5.53;;;;;;;5.80;100.00;100947.44;5198349;28;20112;-67
2021/01/12 01:52:56;;;;;;;12.65;5.32;;;;;;;5.77;100.00;100934.38;5203334;28;20047;-67
2021/01/12 01:55:27;;;;;;;9.10;4.93;;;;;;;5.77;100.00;100941.53;5188688;28;20033;-67
2021/01/12 01:57:57;;;;;;;11.80;4.85;;;;;;;5.75;100.00;100933.69;5207370;28;20035;-67
2021/01/12 02:00:28;;;;;;;10.88;5.18;;;;;;;5.74;100.00;100931.16;5203702;28;20049;-67
2021/01/12 02:03:13;;;;;;;10.63;5.18;;;;;;;5.79;100.00;100927.13;5202851;28;20534;-66
2021/01/12 02:05:57;;;;;;;10.82;4.57;;;;;;;5.77;100.00;100915.75;5183852;28;20021;-67
2021/01/12 02:08:39;;;;;;;8.93;4.57;;;;;;;5.79;100.00;100908.50;5199095;28;20025;-66
2021/01/12 02:11:24;;;;;;;9.93;4.97;;;;;;;5.82;100.00;100899.38;5202300;28;20047;-67
2021/01/12 02:14:01;;;;;;;10.07;4.70;;;;;;;5.83;100.00;100890.44;5202598;28;20032;-66
2021/01/12 02:16:34;;;;;;;9.15;5.65;;;;;;;5.83;100.00;100896.59;5202169;28;20032;-66
2021/01/12 02:19:06;;;;;;;11.30;5.63;;;;;;;5.81;100.00;100893.22;5202325;28;20549;-66
2021/01/12 02:21:47;;;;;;;10.50;5.00;;;;;;;5.93;100.00;100875.38;5201893;28;20067;-67
2021/01/12 02:24:18;;;;;;;8.30;5.07;;;;;;;5.88;100.00;100881.06;5201549;28;20036;-67
2021/01/12 02:26:49;;;;;;;14.40;4.82;;;;;;;5.91;100.00;100877.28;5201957;28;20478;-67
2021/01/12 02:29:19;;;;;;;11.32;5.35;;;;;;;5.96;100.00;100877.75;5201488;28;20159;-67
2021/01/12 02:31:51;;;;;;;7.70;4.63;;;;;;;5.95;100.00;100868.91;5202309;28;20025;-66
2021/01/12 02:34:25;;;;;;;11.05;4.60;;;;;;;6.00;100.00;100867.66;5201385;28;20028;-67
2021/01/12 02:36:57;;;;;;;8.73;4.43;;;;;;;6.04;100.00;100861.94;5201816;28;20036;-67
2021/01/12 02:39:28;;;;;;;9.98;4.28;;;;;;;6.05;100.00;100855.63;5201257;28;20031;-67
2021/01/12 02:41:59;;;;;;;10.98;5.30;;;;;;;6.08;100.00;100849.19;5202780;28;20022;-66
2021/01/12 02:44:29;;;;;;;10.82;4.50;;;;;;;6.13;100.00;100854.94;5201289;28;20048;-66
2021/01/12 02:47:00;;;;;;;8.55;4.28;;;;;;;6.20;100.00;100858.75;5201378;28;20057;-67
2021/01/12 02:49:45;;;;;;;10.70;3.50;;;;;;;6.25;100.00;100853.00;5198782;28;20021;-66
2021/01/12 02:52:16;;;;;;;8.98;3.95;;;;;;;6.23;100.00;100842.50;5199676;28;20028;-67
2021/01/12 02:54:47;;;;;;;8.27;3.88;;;;;;;6.23;100.00;100845.16;5200630;28;20093;-67
2021/01/12 02:57:17;;;;;;;7.88;3.97;;;;;;;6.22;100.00;100839.00;5200784;28;20029;-66
2021/01/12 02:59:55;;;;;;;8.80;3.33;;;;;;;6.26;100.00;100828.88;5201232;28;20026;-67
2021/01/12 03:02:26;;;;;;;9.65;4.30;;;;;;;6.33;100.00;100830.03;5202140;28;20029;-67
2021/01/12 03:05:00;;;;;;;7.65;3.75;;;;;;;6.27;100.00;100822.56;5199636;28;20031;-67
2021/01/12 03:07:31;;;;;;;8.60;3.63;;;;;;;6.34;100.00;100818.38;5191002;28;20029;-67
2021/01/12 03:10:07;;;;;;;11.00;4.30;;;;;;;6.33;100.00;100811.38;5201164;28;20133;-67
2021/01/12 03:12:39;;;;;;;9.45;3.65;;;;;;;6.31;100.00;100805.31;5199534;28;20112;-68
2021/01/12 03:15:11;;;;;;;7.57;3.72;;;;;;;6.37;100.00;100794.09;5199219;28;20029;-67
2021/01/12 03:17:41;;;;;;;12.20;3.90;;;;;;;6.32;100.00;100791.00;5201266;28;20422;-67
2021/01/12 03:20:12;;;;;;;11.30;3.90;;;;;;;6.35;100.00;100788.06;5201160;28;20020;-67
2021/01/12 03:22:43;;;;;;;8.10;3.25;;;;;;;6.38;100.00;100782.47;5201528;28;20117;-67
2021/01/12 03:25:13;;;;;;;4.95;3.00;;;;;;;6.38;100.00;100784.31;5201096;28;20076;-67
2021/01/12 03:27:43;;;;;;;7.75;2.88;;;;;;;6.41;100.00;100781.34;5200948;28;20526;-67
2021/01/12 03:30:15;;;;;;;6.13;3.20;;;;;;;6.40;100.00;100767.19;5200907;28;20125;-67
2021/01/12 03:32:46;;;;;;;9.13;3.08;;;;;;;6.48;100.00;100764.66;5201528;28;20494;-67
2021/01/12 03:35:16;;;;;;;6.65;3.28;;;;;;;6.47;100.00;100762.13;5201121;28;20025;-67
2021/01/12 03:37:48;;;;;;;7.10;3.00;;;;;;;6.55;100.00;100767.59;5200815;28;20021;-67
2021/01/12 03:40:19;;;;;;;13.13;3.15;;;;;;;6.53;100.00;100766.91;5201280;28;20021;-67
2021/01/12 03:42:49;;;;;;;5.05;2.75;;;;;;;6.56;100.00;100765.75;5201502;28;20017;-67
2021/01/12 03:45:20;;;;;;;6.88;2.78;;;;;;;6.54;100.00;100752.59;5200805;28;20060;-67
2021/01/12 03:47:50;;;;;;;7.60;2.92;;;;;;;6.55;100.00;100746.25;5200908;28;20482;-67
2021/01/12 03:50:20;;;;;;;4.47;2.28;;;;;;;6.57;100.00;100746.13;5200165;28;20025;-66
2021/01/12 03:52:54;;;;;;;7.45;2.53;;;;;;;6.60;100.00;100757.34;5201384;28;20092;-67
2021/01/12 03:55:24;;;;;;;5.45;2.22;;;;;;;6.63;100.00;100743.75;5200257;28;20033;-67
2021/01/12 03:57:54;;;;;;;4.03;1.90;;;;;;;6.72;100.00;100742.84;5205814;28;20107;-67
2021/01/12 04:00:25;;;;;;;4.90;2.40;;;;;;;6.72;100.00;100737.53;5204692;28;20100;-67
2021/01/12 04:02:55;;;;;;;7.72;2.28;;;;;;;6.78;100.00;100733.47;5205162;28;20049;-67
2021/01/12 04:05:28;;;;;;;2.83;1.60;;;;;;;6.75;100.00;100731.91;5199116;28;20030;-67
2021/01/12 04:08:00;;;;;;;3.35;1.55;;;;;;;6.83;100.00;100722.34;5197616;28;20029;-67
2021/01/12 04:10:31;;;;;;;4.13;2.25;;;;;;;6.84;100.00;100734.72;5204449;28;20465;-67
2021/01/12 04:13:02;;;;;;;2.97;1.35;;;;;;;6.79;100.00;100729.81;5204638;28;20396;-67
2021/01/12 04:15:33;;;;;;;3.20;1.65;;;;;;;6.81;100.00;100730.50;5204466;28;20022;-67
2021/01/12 04:18:03;;;;;;;5.13;2.15;;;;;;;6.81;100.00;100710.97;5203885;28;20029;-67
2021/01/12 04:20:34;;;;;;;5.63;2.10;;;;;;;6.79;100.00;100694.31;5203985;28;20049;-67
2021/01/12 04:23:05;;;;;;;8.27;4.15;;;;;;;6.82;100.00;100716.16;5204450;28;20437;-67
2021/01/12 04:25:38;;;;;;;4.47;1.92;;;;;;;6.79;100.00;100700.47;5204008;28;20056;-67
2021/01/12 04:28:08;;;;;;;4.78;2.30;;;;;;;6.77;100.00;100697.09;5203921;28;20037;-66
2021/01/12 04:30:39;;;;;;;4.72;2.65;;;;;;;6.79;100.00;100692.47;5203752;28;20032;-67
2021/01/12 04:33:09;;;;;;;4.25;2.50;;;;;;;6.79;100.00;100695.13;5204458;28;20025;-67
2021/01/12 04:35:40;;;;;;;6.32;2.42;;;;;;;6.84;100.00;100695.53;5203568;28;20105;-67
2021/01/12 04:38:10;;;;;;;5.10;2.53;;;;;;;6.83;100.00;100683.19;5204444;28;20037;-67
2021/01/12 04:40:41;;;;;;;4.30;2.10;;;;;;;6.86;100.00;100687.38;5203298;28;20132;-67
2021/01/12 04:43:12;;;;;;;5.03;2.40;;;;;;;6.83;100.00;100687.66;5203874;28;20026;-67
2021/01/12 04:45:43;;;;;;;7.80;2.42;;;;;;;6.83;100.00;100690.34;5203535;28;20025;-67
2021/01/12 04:48:13;;;;;;;4.22;1.90;;;;;;;6.80;100.00;100683.47;5203774;28;20751;-67
2021/01/12 04:50:43;;;;;;;6.95;3.00;;;;;;;6.85;100.00;100675.06;5197874;28;20025;-67
2021/01/12 04:53:14;;;;;;;4.68;2.40;;;;;;;6.88;100.00;100675.59;5204049;28;20017;-68
2021/01/12 04:55:44;;;;;;;6.25;2.65;;;;;;;6.85;100.00;100670.56;5189581;28;20451;-67
2021/01/12 04:58:15;;;;;;;11.93;4.38;;;;;;;6.89;100.00;100671.94;5209654;28;20046;-67
2021/01/12 05:00:45;;;;;;;13.70;6.53;;;;;;;6.88;100.00;100670.28;5203293;28;20033;-67
2021/01/12 05:03:16;;;;;;;11.25;3.80;;;;;;;6.84;100.00;100655.53;5203878;28;20030;-67
2021/01/12 05:05:46;;;;;;;5.93;2.40;;;;;;;6.85;100.00;100659.06;5195447;28;20100;-67
2021/01/12 05:08:18;;;;;;;6.90;2.40;;;;;;;6.88;100.00;100656.94;5199354;28;20025;-67
2021/01/12 05:10:50;;;;;;;7.32;2.75;;;;;;;6.83;100.00;100653.00;5203037;28;20398;-67
2021/01/12 05:13:23;;;;;;;7.53;2.20;;;;;;;6.88;100.00;100648.94;5203591;28;20500;-67
2021/01/12 05:15:57;;;;;;;7.88;2.17;;;;;;;6.83;100.00;100643.22;5203822;28;20021;-66
2021/01/12 05:18:29;;;;;;;6.40;2.63;;;;;;;6.84;100.00;100644.03;5203132;28;20017;-67
2021/01/12 05:21:03;;;;;;;5.85;2.65;;;;;;;6.83;100.00;100634.34;5202718;28;20079;-67
2021/01/12 05:23:50;;;;;;;4.03;2.17;;;;;;;6.81;100.00;100626.50;5203909;28;20078;-67
2021/01/12 05:26:22;;;;;;;5.45;2.35;;;;;;;6.85;100.00;100625.22;5202347;28;20033;-69
2021/01/12 05:28:52;;;;;;;8.48;2.70;;;;;;;6.90;100.00;100611.44;5203863;28;20104;-67
2021/01/12 05:31:23;;;;;;;4.32;2.50;;;;;;;6.87;100.00;100615.22;5202431;28;20117;-66
2021/01/12 05:33:55;;;;;;;5.70;2.75;;;;;;;6.90;100.00;100608.78;5203353;28;20033;-66
2021/01/12 05:36:25;;;;;;;6.50;2.67;;;;;;;6.88;100.00;100603.59;5202549;28;20026;-67
2021/01/12 05:38:59;;;;;;;3.97;2.03;;;;;;;6.98;100.00;100603.56;5207200;28;20028;-67
2021/01/12 05:41:30;;;;;;;5.55;3.45;;;;;;;7.05;100.00;100601.97;5203016;28;20458;-66
2021/01/12 05:44:00;;;;;;;5.13;2.85;;;;;;;7.03;100.00;100592.41;5203297;28;20029;-66
2021/01/12 05:46:31;;;;;;;5.13;2.63;;;;;;;7.07;100.00;100572.47;5201843;28;20060;-66
2021/01/12 05:49:02;;;;;;;6.63;2.83;;;;;;;7.06;100.00;100589.47;5202886;28;20040;-66
2021/01/12 05:51:42;;;;;;;3.28;2.00;;;;;;;7.11;100.00;100573.84;5198011;28;20018;-66
2021/01/12 05:54:19;;;;;;;6.28;2.88;;;;;;;7.08;100.00;100585.66;5202814;28;20022;-66
2021/01/12 05:56:54;;;;;;;4.32;1.98;;;;;;;7.10;100.00;100583.69;5201718;28;20033;-66
2021/01/12 05:59:28;;;;;;;3.92;1.80;;;;;;;7.13;100.00;100579.84;5209815;28;20021;-66
2021/01/12 06:02:05;;;;;;;3.38;1.70;;;;;;;7.15;100.00;100581.41;5202352;28;20497;-67
2021/01/12 06:04:36;;;;;;;3.22;1.80;;;;;;;7.15;100.00;100581.41;5202645;28;20026;-67
2021/01/12 06:07:07;;;;;;;5.03;1.75;;;;;;;7.12;100.00;100578.19;5190083;28;20022;-67
2021/01/12 06:09:38;;;;;;;4.40;1.80;;;;;;;7.22;100.00;100584.28;5202698;28;20125;-67
2021/01/12 06:12:09;;;;;;;3.72;1.98;;;;;;;7.10;100.00;100575.66;5202322;28;20025;-66
2021/01/12 06:14:58;;;;;;;5.47;2.03;;;;;;;7.12;100.00;100575.50;5202617;28;20040;-67
2021/01/12 06:17:33;;;;;;;6.28;1.90;;;;;;;7.17;100.00;100573.22;5201911;28;20032;-66
2021/01/12 06:20:04;;;;;;;;;;;;;;;7.16;100.00;100572.41;5202869;28;20109;-67
2021/01/12 06:22:42;;;;;;;3.50;1.83;;;;;;;7.24;100.00;100569.81;5201411;28;19916;-66
2021/01/12 06:25:15;;;;;;;3.60;1.65;;;;;;;7.15;100.00;100580.56;5201847;28;20021;-66
2021/01/12 06:27:47;;;;;;;7.32;2.22;;;;;;;7.26;100.00;100575.00;5201476;28;20417;-66
2021/01/12 06:30:18;;;;;;;5.70;1.88;;;;;;;7.26;100.00;100569.66;5202720;28;20471;-66
2021/01/12 06:32:48;;;;;;;5.07;1.80;;;;;;;7.29;100.00;100574.72;5201825;28;20482;-67
2021/01/12 06:35:19;;;;;;;5.82;2.08;;;;;;;7.28;100.00;100575.69;5202242;28;20082;-66
2021/01/12 06:37:52;;;;;;;4.57;2.05;;;;;;;7.32;100.00;100561.03;5201001;28;20121;-66
2021/01/12 06:40:24;;;;;;;6.72;2.08;;;;;;;7.37;100.00;100576.59;5202132;28;20030;-66
2021/01/12 06:42:57;;;;;;;5.35;1.90;;;;;;;7.42;100.00;100571.66;5201898;28;20126;-66
2021/01/12 06:45:28;;;;;;;8.52;2.40;;;;;;;7.38;100.00;100568.47;5202337;28;20022;-66
2021/01/12 06:47:59;;;;;;;12.10;7.35;;;;;;;7.46;100.00;100557.84;5200910;28;20033;-66
2021/01/12 06:50:31;;;;;;;7.13;2.05;;;;;;;7.40;100.00;100571.81;5197278;28;20220;-66
2021/01/12 06:53:03;;;;;;;5.63;1.88;;;;;;;7.44;100.00;100577.69;5201719;28;20029;-66
2021/01/12 06:55:34;;;;;;;5.43;2.70;;;;;;;7.40;100.00;100582.47;5188734;28;20026;-66
2021/01/12 06:58:10;;;;;;;7.88;3.92;;;;;;;7.47;100.00;100572.88;5206995;28;20044;-66
2021/01/12 07:00:47;;;;;;;7.93;3.28;;;;;;;7.50;100.00;100577.06;5200737;28;20086;-67
2021/01/12 07:03:29;;;;;;;8.23;2.92;;;;;;;7.46;100.00;100584.53;5201253;28;20036;-66
2021/01/12 07:06:01;;;;;;;10.02;4.47;;;;;;;7.49;100.00;100575.41;5192879;28;20038;-66
2021/01/12 07:08:36;;;;;;;12.80;3.60;;;;;;;7.50;100.00;100580.56;5198663;28;20024;-66
2021/01/12 07:11:06;;;;;;;8.32;4.35;;;;;;;7.48;100.00;100574.56;5201455;28;20191;-66
2021/01/12 07:13:39;;;;;;;12.85;4.60;;;;;;;7.47;100.00;100567.53;5201574;28;20090;-67
2021/01/12 07:16:14;;;;;;;8.75;4.70;;;;;;;7.46;100.00;100581.88;5201441;28;20025;-66
2021/01/12 07:18:59;;;;;;;11.20;3.58;;;;;;;7.51;100.00;100573.41;5201188;28;20104;-67
2021/01/12 07:21:31;;;;;;;10.57;4.05;;;;;;;7.53;100.00;100580.28;5201015;28;20478;-67
2021/01/12 07:24:02;;;;;;;7.95;3.58;;;;;;;7.56;100.00;100575.63;5201140;28;20029;-67
2021/01/12 07:26:33;;;;;;;7.82;3.40;;;;;;;7.49;100.00;100581.56;5201106;28;20512;-66
2021/01/12 07:29:05;;;;;;;9.65;4.30;;;;;;;7.48;100.00;100587.91;5201014;28;20037;-66
2021/01/12 07:31:36;;;;;;;8.60;4.95;;;;;;;7.51;100.00;100592.09;5201715;28;20382;-66
2021/01/12 07:34:14;;;;;;;13.82;5.50;;;;;;;7.45;100.00;100587.38;5200346;28;20029;-66
2021/01/12 07:36:46;;;;;;;23.65;12.63;;;;;;;7.47;100.00;100591.53;5205471;28;20108;-66
2021/01/12 07:39:17;;;;;;;61.90;26.85;;;;;;;7.45;100.00;100595.38;5205000;28;20124;-66
2021/01/12 07:41:48;;;;;;;61.72;29.25;;;;;;;7.48;100.00;100587.03;5205770;28;20390;-67
2021/01/12 07:44:19;;;;;;;63.88;30.10;;;;;;;7.45;100.00;100595.38;5191075;28;20029;-67
2021/01/12 07:46:55;;;;;;;36.10;17.75;;;;;;;7.49;100.00;100594.91;5200686;28;20352;-66
2021/01/12 07:49:27;;;;;;;29.15;14.57;;;;;;;7.52;100.00;100591.94;5202833;28;20545;-66
2021/01/12 07:51:57;;;;;;;23.85;11.48;;;;;;;7.44;100.00;100602.53;5199003;28;20036;-66
2021/01/12 07:54:28;;;;;;;36.60;18.75;;;;;;;7.48;100.00;100597.72;5202503;28;20025;-67
2021/01/12 07:56:59;;;;;;;24.33;11.45;;;;;;;7.46;100.00;100605.88;5202514;28;20052;-66
2021/01/12 07:59:30;;;;;;;24.02;10.05;;;;;;;7.49;100.00;100604.75;5209341;28;20099;-67
2021/01/12 08:02:01;;;;;;;34.95;18.60;;;;;;;7.55;100.00;100612.16;5202987;28;20032;-67
2021/01/12 08:04:32;;;;;;;61.90;41.63;;;;;;;7.46;100.00;100624.56;5202289;28;20025;-67
2021/01/12 08:07:03;;;;;;;50.78;28.45;;;;;;;7.53;100.00;100624.81;5191556;28;20017;-67
2021/01/12 08:09:34;;;;;;;29.58;14.10;;;;;;;7.47;100.00;100628.91;5202354;28;20102;-67
2021/01/12 08:12:05;;;;;;;19.95;7.60;;;;;;;7.56;100.00;100634.34;5203051;28;20148;-67
2021/01/12 08:14:36;;;;;;;27.92;9.70;;;;;;;7.51;100.00;100642.81;5201997;28;20033;-67
2021/01/12 08:17:06;;;;;;;35.33;10.70;;;;;;;7.47;100.00;100646.75;5202630;28;20474;-67
2021/01/12 08:19:37;;;;;;;22.13;8.88;;;;;;;7.48;100.00;100649.31;5202900;28;20536;-66
2021/01/12 08:22:08;;;;;;;25.08;8.77;;;;;;;7.56;100.00;100648.53;5202685;28;20684;-67
2021/01/12 08:24:38;;;;;;;11.32;6.05;;;;;;;7.54;100.00;100658.53;5201421;28;20029;-66
2021/01/12 08:27:09;;;;;;;10.05;4.60;;;;;;;7.52;100.00;100655.16;5202599;28;20512;-66
2021/01/12 08:29:40;;;;;;;11.40;4.40;;;;;;;7.48;100.00;100665.31;5202378;28;20598;-67
2021/01/12 08:32:13;;;;;;;16.42;6.60;;;;;;;7.45;100.00;100660.28;5202476;28;20087;-67
2021/01/12 08:34:49;;;;;;;12.90;3.15;;;;;;;7.41;100.00;100671.41;5201161;28;20577;-66
2021/01/12 08:37:21;;;;;;;13.57;3.30;;;;;;;7.38;100.00;100677.03;5202455;28;20033;-66
2021/01/12 08:39:52;;;;;;;8.88;2.75;;;;;;;7.37;100.00;100670.00;5205333;28;20021;-66
2021/01/12 08:42:23;;;;;;;10.63;4.90;;;;;;;7.33;100.00;100677.50;5202320;28;20024;-67
2021/01/12 08:44:55;;;;;;;10.77;3.13;;;;;;;7.35;100.00;100680.84;5201200;28;20021;-66
2021/01/12 08:47:27;;;;;;;9.70;3.25;;;;;;;7.35;100.00;100694.19;5200472;28;20029;-66
2021/01/12 08:50:02;;;;;;;10.10;3.45;;;;;;;7.33;100.00;100690.84;5198760;28;20018;-68
2021/01/12 08:52:34;;;;;;;12.63;3.40;;;;;;;7.33;100.00;100700.66;5202580;28;20548;-69
2021/01/12 08:55:18;;;;;;;11.13;4.18;;;;;;;7.25;100.00;100702.25;5187614;28;20026;-69
2021/01/12 08:57:55;;;;;;;11.40;3.80;;;;;;;7.24;100.00;100699.72;5206098;28;20016;-67
2021/01/12 09:00:27;;;;;;;8.43;3.67;;;;;;;7.20;100.00;100711.69;5203163;28;20415;-66
2021/01/12 09:02:59;;;;;;;10.20;3.63;;;;;;;7.21;100.00;100716.03;5201897;28;20025;-67
2021/01/12 09:05:36;;;;;;;9.50;4.22;;;;;;;7.18;100.00;100724.34;5195434;28;20022;-66
2021/01/12 09:08:10;;;;;;;10.90;3.92;;;;;;;7.16;100.00;100723.63;5196080;28;20040;-66
2021/01/12 09:10:41;;;;;;;11.90;3.03;;;;;;;7.16;100.00;100731.63;5201749;28;20358;-66
2021/01/12 09:13:11;;;;;;;16.65;4.20;;;;;;;7.08;100.00;100735.06;5201165;28;20064;-67
2021/01/12 09:15:48;;;;;;;13.23;3.20;;;;;;;7.06;100.00;100741.50;5201063;28;20021;-66
2021/01/12 09:18:20;;;;;;;10.88;3.53;;;;;;;7.08;100.00;100739.50;5201002;28;20386;-67
2021/01/12 09:20:54;;;;;;;6.55;3.25;;;;;;;7.11;100.00;100749.91;5202158;28;20014;-67
2021/01/12 09:23:26;;;;;;;10.52;2.50;;;;;;;7.08;100.00;100756.41;5201293;28;20029;-67
2021/01/12 09:26:00;;;;;;;13.60;3.15;;;;;;;7.00;100.00;100759.78;5201690;28;20484;-66
2021/01/12 09:28:33;;;;;;;9.82;4.93;;;;;;;6.98;100.00;100760.91;5201295;28;20033;-66
2021/01/12 09:31:06;;;;;;;13.10;4.25;;;;;;;7.00;100.00;100761.59;5201241;28;20120;-66
2021/01/12 09:33:39;;;;;;;9.30;3.45;;;;;;;6.97;100.00;100765.38;5201372;28;20246;-66
2021/01/12 09:36:12;;;;;;;20.83;11.02;;;;;;;6.92;100.00;100766.81;5200963;28;20469;-67
2021/01/12 09:38:45;;;;;;;17.45;9.77;;;;;;;6.88;100.00;100776.94;5201485;28;20024;-67
2021/01/12 09:41:21;;;;;;;10.07;5.70;;;;;;;6.91;100.00;100783.81;5200634;28;20029;-67
2021/01/12 09:43:52;;;;;;;10.32;5.97;;;;;;;6.88;100.00;100778.78;5200744;28;20494;-67
2021/01/12 09:46:24;;;;;;;9.20;3.03;;;;;;;6.92;100.00;100788.13;5200131;28;20490;-66
2021/01/12 09:48:55;;;;;;;8.02;3.13;;;;;;;6.87;100.00;100785.06;5201702;28;20033;-66
2021/01/12 09:51:26;;;;;;;9.25;3.15;;;;;;;6.96;100.00;100778.88;5195367;28;20037;-67
2021/01/12 09:53:57;;;;;;;6.45;3.10;;;;;;;6.90;100.00;100796.28;5200767;28;20496;-66
2021/01/12 09:56:27;;;;;;;8.40;3.50;;;;;;;6.85;100.00;100787.88;5195115;28;20029;-66
2021/01/12 09:58:57;;;;;;;11.40;3.63;;;;;;;6.86;100.00;100794.91;5207354;28;20037;-66
2021/01/12 10:01:28;;;;;;;11.05;4.80;;;;;;;6.82;100.00;100796.16;5200381;28;20025;-67
2021/01/12 10:03:59;;;;;;;14.93;4.45;;;;;;;6.84;100.00;100804.88;5200238;28;20386;-67
2021/01/12 10:06:31;;;;;;;16.10;4.75;;;;;;;6.87;100.00;100814.41;5188282;28;20295;-66
2021/01/12 10:09:01;;;;;;;12.65;5.05;;;;;;;6.81;100.00;100818.47;5201315;28;20031;-67
2021/01/12 10:11:32;;;;;;;10.13;4.30;;;;;;;6.84;100.00;100820.03;5200469;28;20112;-66
2021/01/12 10:14:03;;;;;;;14.45;4.65;;;;;;;6.82;100.00;100835.31;5200344;28;20620;-67
2021/01/12 10:16:33;;;;;;;13.50;5.60;;;;;;;6.85;100.00;100835.03;5199299;28;20116;-67
2021/01/12 10:19:04;;;;;;;14.10;5.10;;;;;;;6.83;100.00;100840.53;5201113;28;20025;-66
2021/01/12 10:21:35;;;;;;;13.25;6.20;;;;;;;6.86;100.00;100848.22;5200032;28;20029;-66
2021/01/12 10:24:06;;;;;;;24.20;9.65;;;;;;;6.82;100.00;100856.66;5200015;28;20025;-66
2021/01/12 10:26:37;;;;;;;22.27;8.45;;;;;;;6.82;100.00;100859.31;5199450;28;20482;-67
2021/01/12 10:29:08;;;;;;;88.30;28.98;;;;;;;6.72;100.00;100862.00;5200085;28;20029;-67
2021/01/12 10:31:43;;;;;;;14.57;5.18;;;;;;;6.84;100.00;100876.88;5200861;28;20020;-67
2021/01/12 10:34:14;;;;;;;11.73;6.15;;;;;;;6.80;100.00;100874.63;5199592;28;20486;-66
2021/01/12 10:36:49;;;;;;;12.05;4.25;;;;;;;6.70;100.00;100869.31;5199625;28;20041;-66
2021/01/12 10:39:19;;;;;;;8.77;4.88;;;;;;;6.69;100.00;100879.13;5203963;28;20100;-66
2021/01/12 10:41:52;;;;;;;16.45;5.72;;;;;;;6.63;100.00;100876.19;5199678;28;20132;-67
2021/01/12 10:44:23;;;;;;;11.60;4.47;;;;;;;6.61;100.00;100894.97;5199602;28;20117;-67
2021/01/12 10:46:55;;;;;;;15.23;4.32;;;;;;;6.59;100.00;100894.28;5198767;28;20018;-66
2021/01/12 10:49:26;;;;;;;13.82;5.03;;;;;;;6.61;100.00;100902.13;5200588;28;20543;-66
2021/01/12 10:51:57;;;;;;;13.18;5.30;;;;;;;6.59;100.00;100904.94;5194982;28;20022;-66
2021/01/12 10:54:28;;;;;;;18.95;4.32;;;;;;;6.55;100.00;100916.00;5190359;28;20044;-66
2021/01/12 10:56:59;;;;;;;6.85;3.75;;;;;;;6.56;100.00;100917.69;5195725;28;20025;-67
2021/01/12 10:59:29;;;;;;;10.35;3.80;;;;;;;6.53;100.00;100920.66;5206785;28;20032;-67
2021/01/12 11:02:01;;;;;;;15.73;3.90;;;;;;;6.51;100.00;100930.59;5199425;28;20494;-67
2021/01/12 11:04:32;;;;;;;8.00;2.88;;;;;;;6.54;100.00;100930.31;5198937;28;20030;-66
2021/01/12 11:07:03;;;;;;;9.73;2.75;;;;;;;6.52;100.00;100935.78;5187561;28;20507;-66
2021/01/12 11:09:35;;;;;;;6.50;2.10;;;;;;;6.55;100.00;100940.00;5200872;28;20113;-66
2021/01/12 11:12:08;;;;;;;6.13;1.75;;;;;;;6.50;100.00;100943.06;5203954;28;20037;-67
2021/01/12 11:14:38;;;;;;;7.35;1.65;;;;;;;6.44;100.00;100946.28;5204075;28;20107;-66
2021/01/12 11:17:12;;;;;;;6.22;1.60;;;;;;;6.44;100.00;100952.47;5203143;28;20454;-67
2021/01/12 11:19:43;;;;;;;6.10;2.20;;;;;;;6.52;100.00;100953.59;5204693;28;20025;-66
2021/01/12 11:22:14;;;;;;;6.22;1.58;;;;;;;6.52;100.00;100954.44;5205156;28;20033;-67
2021/01/12 11:24:46;;;;;;;7.78;2.88;;;;;;;6.67;100.00;100957.53;5205720;28;20486;-66
2021/01/12 11:27:17;;;;;;;1.80;1.02;;;;;;;6.65;100.00;100963.03;5204609;28;20037;-66
2021/01/12 11:29:47;;;;;;;6.57;1.42;;;;;;;6.56;100.00;100963.84;5205307;28;20033;-67
2021/01/12 11:32:18;;;;;;;5.13;1.50;;;;;;;6.46;100.00;100968.31;5204949;28;20030;-66
2021/01/12 11:34:50;;;;;;;4.00;1.45;;;;;;;6.51;100.00;100967.91;5205635;28;20437;-66
2021/01/12 11:37:20;;;;;;;5.47;1.50;;;;;;;6.58;100.00;100974.41;5203847;28;20034;-67
2021/01/12 11:39:51;;;;;;;10.70;2.30;;;;;;;6.71;100.00;100977.63;5204974;28;20100;-66
2021/01/12 11:42:21;;;;;;;3.55;1.42;;;;;;;6.84;100.00;100972.03;5204632;28;20036;-66
2021/01/12 11:44:52;;;;;;;5.68;1.70;;;;;;;6.78;100.00;100981.44;5205298;28;20029;-69